createdAt,value
2023-03-05T00:00:33.009Z,5.67
2023-03-05T00:05:36.699Z,5.63
2023-03-05T00:10:41.708Z,5.65
2023-03-05T00:15:45.408Z,5.61
2023-03-05T00:20:49.688Z,5.59
2023-03-05T00:25:54.876Z,5.59
2023-03-05T00:31:01.441Z,5.56
2023-03-05T00:36:07.663Z,5.50
2023-03-05T00:41:12.717Z,5.46
2023-03-05T00:46:16.567Z,5.49
2023-03-05T00:51:20.556Z,5.49
2023-03-05T00:56:25.755Z,5.47
2023-03-05T01:01:29.670Z,5.44
2023-03-05T01:06:33.499Z,5.43
2023-03-05T01:11:39.114Z,5.38
2023-03-05T01:16:42.865Z,5.37
2023-03-05T01:21:47.008Z,5.35
2023-03-05T01:26:52.535Z,5.29
2023-03-05T01:31:56.273Z,5.28
2023-03-05T01:36:59.958Z,5.17
2023-03-05T01:42:05.965Z,5.06
2023-03-05T01:47:09.680Z,4.96
2023-03-05T01:52:18.784Z,4.82
2023-03-05T01:57:27.762Z,4.76
2023-03-05T02:02:31.930Z,4.67
2023-03-05T02:07:37.275Z,4.60
2023-03-05T02:12:42.394Z,4.54
2023-03-05T02:17:46.209Z,4.37
2023-03-05T02:22:51.456Z,4.37
2023-03-05T02:27:59.063Z,4.37
2023-03-05T02:33:03.040Z,4.33
2023-03-05T02:38:08.253Z,4.28
2023-03-05T02:43:12.656Z,4.28
2023-03-05T02:48:16.730Z,4.25
2023-03-05T02:53:23.083Z,4.13
2023-03-05T02:58:27.706Z,4.16
2023-03-05T03:03:31.758Z,4.16
2023-03-05T03:08:37.423Z,4.22
2023-03-05T03:13:41.195Z,4.21
2023-03-05T03:18:47.455Z,4.18
2023-03-05T03:23:52.625Z,4.16
2023-03-05T03:28:56.445Z,4.15
2023-03-05T03:34:00.170Z,4.22
2023-03-05T03:39:05.920Z,4.10
2023-03-05T03:44:10.753Z,4.18
2023-03-05T03:49:17.765Z,4.23
2023-03-05T03:54:23.530Z,4.19
2023-03-05T03:59:27.350Z,4.20
2023-03-05T04:04:31.314Z,4.17
2023-03-05T04:09:36.382Z,4.12
2023-03-05T04:14:40.080Z,4.14
2023-03-05T04:19:44.373Z,4.15
2023-03-05T04:24:49.465Z,4.17
2023-03-05T04:29:53.238Z,4.19
2023-03-05T04:34:57.421Z,4.19
2023-03-05T04:40:02.596Z,4.16
2023-03-05T04:45:07.776Z,4.21
2023-03-05T04:50:12.616Z,4.23
2023-03-05T04:55:19.029Z,4.24
2023-03-05T05:00:23.306Z,4.25
2023-03-05T05:05:29.309Z,4.18
2023-03-05T05:10:34.433Z,4.16
2023-03-05T05:15:38.115Z,4.18
2023-03-05T05:20:41.813Z,4.09
2023-03-05T05:25:46.868Z,4.08
2023-03-05T05:30:50.732Z,4.13
2023-03-05T05:35:54.488Z,4.15
2023-03-05T05:41:05.742Z,4.07
2023-03-05T05:46:12.906Z,4.07
2023-03-05T05:51:19.117Z,4.06
2023-03-05T05:56:24.206Z,4.17
2023-03-05T06:01:30.339Z,4.22
2023-03-05T06:06:34.971Z,4.09
2023-03-05T06:11:40.109Z,4.08
2023-03-05T06:16:43.880Z,4.10
2023-03-05T06:21:47.634Z,4.08
2023-03-05T06:26:52.738Z,4.04
2023-03-05T06:31:56.594Z,3.94
2023-03-05T06:37:00.292Z,3.89
2023-03-05T06:42:05.783Z,3.83
2023-03-05T06:47:10.588Z,3.80
2023-03-05T06:52:14.357Z,3.71
2023-03-05T06:57:19.426Z,3.59
2023-03-05T07:02:23.294Z,3.75
2023-03-05T07:07:27.089Z,3.81
2023-03-05T07:12:32.411Z,3.91
2023-03-05T07:17:36.095Z,3.91
2023-03-05T07:22:39.812Z,4.00
2023-03-05T07:27:44.914Z,4.08
2023-03-05T07:32:48.782Z,4.14
2023-03-05T07:37:52.508Z,4.26
2023-03-05T07:42:57.553Z,4.36
2023-03-05T07:48:04.346Z,4.39
2023-03-05T07:53:07.981Z,4.40
2023-03-05T07:58:13.802Z,4.52
2023-03-05T08:03:17.595Z,4.57
2023-03-05T08:08:21.352Z,4.50
2023-03-05T08:13:26.432Z,4.62
2023-03-05T08:18:30.159Z,4.69
2023-03-05T08:23:34.448Z,4.82
2023-03-05T08:28:39.554Z,4.99
2023-03-05T08:33:43.760Z,5.17
2023-03-05T08:38:48.555Z,5.31
2023-03-05T08:43:53.644Z,5.40
2023-03-05T08:48:57.396Z,5.51
2023-03-05T08:54:01.870Z,5.58
2023-03-05T08:59:07.224Z,5.66
2023-03-05T09:04:11.097Z,5.60
2023-03-05T09:09:14.864Z,5.71
2023-03-05T09:14:19.958Z,5.82
2023-03-05T09:19:23.943Z,6.03
2023-03-05T09:24:27.838Z,6.13
2023-03-05T09:29:33.168Z,6.25
2023-03-05T09:34:37.111Z,6.30
2023-03-05T09:39:40.935Z,6.37
2023-03-05T09:44:51.857Z,6.51
2023-03-05T09:50:02.445Z,6.71
2023-03-05T09:55:14.174Z,6.88
2023-03-05T10:00:27.967Z,6.66
2023-03-05T10:05:46.950Z,6.47
2023-03-05T10:10:53.929Z,6.36
2023-03-05T10:16:10.128Z,6.34
2023-03-05T10:21:16.823Z,6.24
2023-03-05T10:26:43.385Z,6.31
2023-03-05T10:32:08.612Z,6.23
2023-03-05T10:37:33.734Z,6.35
2023-03-05T10:42:45.504Z,6.46
2023-03-05T10:47:56.176Z,6.64
2023-03-05T10:53:14.027Z,7.12
2023-03-05T10:58:18.292Z,8.38
2023-03-05T11:03:23.454Z,8.21
2023-03-05T11:08:30.960Z,8.42
2023-03-05T11:13:35.207Z,8.28
2023-03-05T11:18:40.328Z,8.84
2023-03-05T11:23:44.272Z,8.84
2023-03-05T11:28:59.302Z,8.54
2023-03-05T11:34:08.419Z,8.27
2023-03-05T11:39:16.889Z,8.13
2023-03-05T11:44:24.524Z,8.00
2023-03-05T11:49:33.472Z,7.91
2023-03-05T11:54:48.917Z,7.79
2023-03-05T11:59:56.245Z,7.57
2023-03-05T12:05:03.303Z,7.36
2023-03-05T12:10:08.203Z,7.22
2023-03-05T12:15:34.922Z,7.14
2023-03-05T12:20:47.137Z,7.15
2023-03-05T12:25:52.596Z,7.38
2023-03-05T12:31:01.584Z,7.69
2023-03-05T12:36:37.813Z,8.30
2023-03-05T12:41:41.836Z,9.05
2023-03-05T12:46:49.157Z,9.77
2023-03-05T12:51:56.360Z,10.35
2023-03-05T12:57:02.479Z,10.12
2023-03-05T13:02:21.687Z,9.93
2023-03-05T13:07:27.185Z,9.65
2023-03-05T13:12:31.429Z,9.55
2023-03-05T13:17:39.175Z,9.39
2023-03-05T13:22:44.335Z,9.12
2023-03-05T13:27:48.300Z,8.99
2023-03-05T13:32:53.936Z,8.70
2023-03-05T13:37:59.242Z,8.31
2023-03-05T13:43:13.578Z,7.96
2023-03-05T13:48:21.054Z,8.26
2023-03-05T13:53:29.196Z,8.14
2023-03-05T13:58:48.315Z,8.08
2023-03-05T14:03:53.973Z,7.99
2023-03-05T14:09:06.205Z,8.06
2023-03-05T14:14:17.918Z,8.31
2023-03-05T14:19:42.980Z,8.32
2023-03-05T14:24:53.742Z,8.11
2023-03-05T14:29:57.699Z,8.12
2023-03-05T14:35:04.256Z,7.88
2023-03-05T14:40:20.649Z,7.97
2023-03-05T14:45:26.663Z,7.76
2023-03-05T14:50:33.241Z,7.82
2023-03-05T14:55:39.251Z,7.76
2023-03-05T15:00:44.283Z,7.43
2023-03-05T15:05:51.765Z,7.31
2023-03-05T15:10:57.651Z,7.43
2023-03-05T15:16:01.634Z,7.40
2023-03-05T15:21:05.710Z,7.31
2023-03-05T15:26:14.063Z,7.36
2023-03-05T15:31:18.222Z,7.36
2023-03-05T15:36:21.896Z,7.18
2023-03-05T15:41:27.068Z,7.21
2023-03-05T15:46:31.050Z,7.01
2023-03-05T15:51:34.826Z,7.01
2023-03-05T15:56:41.818Z,7.03
2023-03-05T16:01:49.054Z,6.98
2023-03-05T16:06:52.787Z,6.77
2023-03-05T16:11:57.996Z,6.75
2023-03-05T16:17:04.311Z,6.70
2023-03-05T16:22:08.057Z,6.55
2023-03-05T16:27:13.317Z,6.51
2023-03-05T16:32:17.897Z,6.32
2023-03-05T16:37:23.933Z,6.40
2023-03-05T16:42:29.048Z,6.46
2023-03-05T16:47:32.818Z,6.34
2023-03-05T16:52:36.836Z,6.32
2023-03-05T16:57:42.183Z,6.28
2023-03-05T17:02:46.156Z,6.28
2023-03-05T17:07:49.877Z,6.10
2023-03-05T17:12:55.002Z,6.18
2023-03-05T17:17:58.769Z,6.14
2023-03-05T17:23:02.936Z,6.18
2023-03-05T17:28:08.114Z,6.01
2023-03-05T17:33:12.476Z,6.06
2023-03-05T17:38:16.193Z,5.99
2023-03-05T17:43:21.917Z,5.93
2023-03-05T17:48:25.878Z,5.65
2023-03-05T17:53:29.676Z,5.80
2023-03-05T17:58:34.741Z,5.80
2023-03-05T18:03:38.769Z,5.79
2023-03-05T18:08:42.605Z,5.75
2023-03-05T18:13:47.856Z,5.71
2023-03-05T18:18:51.769Z,5.69
2023-03-05T18:23:55.532Z,5.76
2023-03-05T18:29:00.621Z,5.72
2023-03-05T18:34:04.382Z,5.72
2023-03-05T18:39:08.169Z,5.64
2023-03-05T18:44:14.007Z,5.59
2023-03-05T18:49:17.727Z,5.55
2023-03-05T18:54:21.468Z,5.34
2023-03-05T18:59:26.566Z,5.41
2023-03-05T19:04:30.342Z,5.29
2023-03-05T19:09:48.857Z,5.24
2023-03-05T19:14:53.923Z,5.17
2023-03-05T19:19:59.141Z,5.16
2023-03-05T19:25:03.539Z,5.15
2023-03-05T19:30:16.204Z,5.10
2023-03-05T19:35:20.100Z,5.11
2023-03-05T19:40:24.033Z,5.14
2023-03-05T19:45:32.740Z,5.08
2023-03-05T19:50:36.612Z,5.03
2023-03-05T19:55:40.867Z,5.02
2023-03-05T20:00:45.961Z,5.07
2023-03-05T20:05:49.672Z,4.91
2023-03-05T20:10:53.387Z,4.79
2023-03-05T20:15:59.563Z,4.88
2023-03-05T20:21:03.460Z,4.72
2023-03-05T20:26:07.167Z,4.74
2023-03-05T20:31:12.317Z,4.71
2023-03-05T20:36:16.248Z,4.69
2023-03-05T20:41:21.703Z,4.64
2023-03-05T20:46:28.765Z,4.63
2023-03-05T20:51:35.821Z,4.51
2023-03-05T20:56:39.947Z,4.48
2023-03-05T21:01:45.230Z,4.43
2023-03-05T21:06:53.196Z,4.19
2023-03-05T21:11:56.973Z,4.29
2023-03-05T21:17:02.471Z,4.31
2023-03-05T21:22:06.801Z,4.31
2023-03-05T21:27:10.662Z,4.29
2023-03-05T21:32:15.988Z,4.22
2023-03-05T21:37:19.811Z,4.29
2023-03-05T21:42:23.567Z,4.31
2023-03-05T21:47:28.712Z,4.22
2023-03-05T21:52:32.651Z,4.05
2023-03-05T21:57:36.560Z,3.97
2023-03-05T22:02:42.778Z,3.95
2023-03-05T22:07:47.242Z,3.93
2023-03-05T22:12:56.763Z,3.88
2023-03-05T22:18:06.683Z,3.76
2023-03-05T22:23:10.811Z,3.78
2023-03-05T22:28:14.795Z,3.80
2023-03-05T22:33:22.924Z,3.76
2023-03-05T22:38:27.189Z,3.79
2023-03-05T22:43:30.932Z,3.79
2023-03-05T22:48:36.016Z,3.84
2023-03-05T22:53:40.258Z,3.88
2023-03-05T22:58:44.019Z,3.89
2023-03-05T23:03:57.322Z,3.84
2023-03-05T23:09:01.221Z,3.77
2023-03-05T23:14:04.887Z,3.54
2023-03-05T23:19:09.995Z,3.58
2023-03-05T23:24:13.668Z,3.56
2023-03-05T23:29:17.605Z,3.53
2023-03-05T23:34:22.998Z,3.55
2023-03-05T23:39:26.805Z,3.41
2023-03-05T23:44:30.445Z,3.38
2023-03-05T23:49:35.654Z,3.35
2023-03-05T23:54:39.385Z,3.34
2023-03-05T23:59:43.243Z,3.28
